Time;durP1;ratioP1;P1;durP2;ratioP2;P2;SDS_P1;SDS_P2;PMS_P1;PMS_P2;Temp;Humidity;BMP_temperature;BMP_pressure;BME280_temperature;BME280_humidity;BME280_pressure;Samples;Min_cycle;Max_cycle;Signal;HPM_P1;HPM_P2
2023/04/26 00:02:26;;;;;;;3.55;2.65;;;;;;;16.58;58.00;97808.38;4958946;28;20034;-76
2023/04/26 00:04:57;;;;;;;4.15;3.15;;;;;;;16.58;58.36;97811.84;4975161;28;20023;-76
2023/04/26 00:07:25;;;;;;;4.38;2.70;;;;;;;16.60;58.22;97812.50;4943893;28;20181;-76
2023/04/26 00:09:53;;;;;;;;;;;;;;;16.60;58.25;97815.13;4975223;28;20061;-76
2023/04/26 00:12:19;;;;;;;3.45;2.17;;;;;;;16.52;58.39;97812.53;4990807;28;19914;-76
2023/04/26 00:14:44;;;;;;;3.50;2.40;;;;;;;16.56;58.21;97810.38;4958931;28;20516;-76
2023/04/26 00:17:10;;;;;;;4.75;2.60;;;;;;;16.55;58.50;97814.81;4962067;28;20038;-76
2023/04/26 00:19:35;;;;;;;3.35;1.80;;;;;;;16.52;58.26;97796.72;4961987;28;20046;-76
2023/04/26 00:22:01;;;;;;;3.38;2.28;;;;;;;16.56;58.36;97807.75;4962328;28;20030;-76
2023/04/26 00:24:27;;;;;;;2.78;2.00;;;;;;;16.51;58.43;97795.13;4946237;28;20026;-76
2023/04/26 00:26:54;;;;;;;2.70;1.90;;;;;;;16.56;58.29;97803.28;4978275;28;20037;-76
2023/04/26 00:29:19;;;;;;;3.90;1.83;;;;;;;16.56;58.46;97798.03;4978514;28;20038;-76
2023/04/26 00:31:45;;;;;;;3.88;2.00;;;;;;;16.57;58.48;97804.94;4978544;28;20089;-76
2023/04/26 00:34:10;;;;;;;2.75;1.83;;;;;;;16.57;58.42;97798.84;4962370;28;20038;-76
2023/04/26 00:36:36;;;;;;;2.60;1.90;;;;;;;16.57;58.43;97799.69;4978058;28;20041;-76
2023/04/26 00:39:01;;;;;;;3.78;1.80;;;;;;;16.57;58.34;97802.31;4977684;28;20131;-76
2023/04/26 00:41:27;;;;;;;3.05;1.67;;;;;;;16.56;58.28;97792.75;4961866;28;20030;-76
2023/04/26 00:43:52;;;;;;;3.72;1.70;;;;;;;16.53;58.42;97787.03;4945932;28;20030;-76
2023/04/26 00:46:18;;;;;;;2.60;1.70;;;;;;;16.56;58.57;97786.69;4945755;28;20158;-77
2023/04/26 00:48:43;;;;;;;2.92;1.67;;;;;;;16.55;58.51;97785.03;4961712;28;20047;-77
2023/04/26 00:51:09;;;;;;;2.50;1.67;;;;;;;16.54;58.53;97784.22;4961996;28;20401;-77
2023/04/26 00:53:34;;;;;;;2.10;1.40;;;;;;;16.53;58.42;97785.22;4977926;28;20038;-77
2023/04/26 00:56:00;;;;;;;3.13;1.60;;;;;;;16.55;58.51;97787.66;4961038;28;20508;-77
2023/04/26 00:58:26;;;;;;;2.58;1.50;;;;;;;16.53;58.56;97781.75;4961368;28;20022;-76
2023/04/26 01:00:51;;;;;;;2.55;1.45;;;;;;;16.53;58.61;97784.41;4977793;28;20067;-77
2023/04/26 01:03:17;;;;;;;1.90;1.30;;;;;;;16.53;58.57;97779.13;4961544;28;20038;-76
2023/04/26 01:05:43;;;;;;;2.55;1.30;;;;;;;16.51;58.51;97779.31;4961681;28;20034;-76
2023/04/26 01:08:08;;;;;;;1.90;1.33;;;;;;;16.48;58.57;97769.13;4961396;28;20050;-76
2023/04/26 01:10:34;;;;;;;1.90;1.30;;;;;;;16.51;58.57;97774.03;4945396;28;20069;-77
2023/04/26 01:13:00;;;;;;;1.88;1.10;;;;;;;16.49;58.75;97769.94;4961515;28;20140;-77
2023/04/26 01:15:26;;;;;;;1.70;1.20;;;;;;;16.46;58.49;97771.94;4961219;28;20041;-76
2023/04/26 01:17:52;;;;;;;2.15;1.30;;;;;;;16.48;58.51;97773.56;4946062;28;20045;-76
2023/04/26 01:20:17;;;;;;;1.75;1.08;;;;;;;16.45;58.47;97769.47;4977944;28;20030;-76
2023/04/26 01:22:43;;;;;;;3.38;1.30;;;;;;;16.48;58.52;97773.56;4961598;28;20142;-76
2023/04/26 01:25:10;;;;;;;2.60;1.42;;;;;;;16.44;58.61;97773.91;4977869;28;20486;-76
2023/04/26 01:27:36;;;;;;;2.33;1.23;;;;;;;16.46;58.57;97774.56;4961379;28;20085;-76
2023/04/26 01:30:02;;;;;;;2.38;1.30;;;;;;;16.43;58.66;97760.91;4961221;28;20387;-76
2023/04/26 01:32:27;;;;;;;2.15;1.17;;;;;;;16.44;58.66;97768.66;4993345;28;20069;-76
2023/04/26 01:34:53;;;;;;;2.17;1.10;;;;;;;16.39;58.49;97757.84;4961333;28;20052;-76
2023/04/26 01:37:18;;;;;;;1.65;1.20;;;;;;;16.39;58.03;97757.03;4961283;28;20088;-76
2023/04/26 01:39:45;;;;;;;1.67;1.10;;;;;;;16.42;58.35;97761.94;4961102;28;20034;-76
2023/04/26 01:42:10;;;;;;;2.08;1.38;;;;;;;16.42;58.37;97760.09;4961531;28;20039;-76
2023/04/26 01:44:36;;;;;;;1.50;1.08;;;;;;;16.41;58.38;97760.28;4945107;28;20552;-76
2023/04/26 01:47:02;;;;;;;4.13;1.30;;;;;;;16.39;58.40;97755.19;4977073;28;20050;-76
2023/04/26 01:49:27;;;;;;;1.95;1.15;;;;;;;16.36;58.24;97750.28;4977457;28;20034;-76
2023/04/26 01:51:53;;;;;;;2.65;1.52;;;;;;;16.40;58.24;97754.22;4976939;28;20490;-75
2023/04/26 01:54:18;;;;;;;2.30;1.13;;;;;;;16.38;58.33;97756.22;4944858;28;20030;-75
2023/04/26 01:56:44;;;;;;;4.78;1.50;;;;;;;16.36;58.19;97750.28;4961290;28;20050;-76
2023/04/26 01:59:09;;;;;;;1.65;1.10;;;;;;;16.36;58.36;97742.38;4976947;28;20504;-76
2023/04/26 02:01:35;;;;;;;2.20;1.20;;;;;;;16.31;58.26;97734.22;4994243;28;20038;-76
2023/04/26 02:04:00;;;;;;;2.28;1.10;;;;;;;16.31;58.27;97736.03;4961035;28;20061;-76
2023/04/26 02:06:26;;;;;;;1.42;1.10;;;;;;;16.30;58.26;97735.19;4960634;28;20058;-75
2023/04/26 02:08:52;;;;;;;1.50;1.13;;;;;;;16.29;58.38;97728.31;4960332;28;20077;-76
2023/04/26 02:11:18;;;;;;;2.05;1.20;;;;;;;16.28;58.40;97729.28;4960357;28;20486;-76
2023/04/26 02:13:43;;;;;;;1.83;1.30;;;;;;;16.31;58.49;97731.56;4976678;28;20482;-76
2023/04/26 02:16:09;;;;;;;1.80;1.30;;;;;;;16.30;58.39;97731.75;4960680;28;20081;-76
2023/04/26 02:18:34;;;;;;;4.32;1.25;;;;;;;16.25;58.38;97727.81;4976729;28;20030;-76
2023/04/26 02:21:00;;;;;;;2.65;1.30;;;;;;;16.28;58.60;97732.75;4960527;28;20406;-77
2023/04/26 02:23:25;;;;;;;1.80;1.30;;;;;;;16.26;58.45;97728.66;4976436;28;20034;-76
2023/04/26 02:25:51;;;;;;;3.15;1.23;;;;;;;16.26;58.61;97726.03;4993603;28;20455;-81
2023/04/26 02:28:16;;;;;;;2.50;1.33;;;;;;;16.23;58.65;97723.75;4944274;28;20031;-77
2023/04/26 02:30:42;;;;;;;2.85;1.42;;;;;;;16.19;58.48;97720.66;4960402;28;20034;-77
2023/04/26 02:33:08;;;;;;;1.60;1.20;;;;;;;16.25;58.54;97734.91;4955046;28;20085;-77
2023/04/26 02:35:35;;;;;;;1.92;1.27;;;;;;;16.21;58.46;97726.56;4971216;28;20279;-77
2023/04/26 02:38:01;;;;;;;1.50;1.10;;;;;;;16.22;58.46;97728.19;4978556;28;20044;-77
2023/04/26 02:40:26;;;;;;;1.65;1.20;;;;;;;16.19;58.53;97722.47;5011785;28;20026;-76
2023/04/26 02:42:52;;;;;;;3.03;1.35;;;;;;;16.22;58.43;97722.09;4979232;28;20602;-76
2023/04/26 02:45:17;;;;;;;1.50;1.30;;;;;;;16.22;58.38;97730.00;4993737;28;20042;-76
2023/04/26 02:47:43;;;;;;;1.33;1.02;;;;;;;16.16;58.49;97718.38;4979122;28;20040;-77
2023/04/26 02:50:08;;;;;;;2.80;1.20;;;;;;;16.18;58.39;97729.56;5012055;28;20053;-76
2023/04/26 02:52:37;;;;;;;1.85;1.40;;;;;;;16.14;58.49;97730.88;4964813;28;20034;-77
2023/04/26 02:55:03;;;;;;;3.13;1.30;;;;;;;16.17;58.49;97729.72;4959765;28;20529;-77
2023/04/26 02:57:30;;;;;;;2.90;1.20;;;;;;;16.17;58.32;97732.34;4959753;28;20091;-77
2023/04/26 02:59:56;;;;;;;1.58;1.30;;;;;;;16.16;58.47;97739.44;4959721;28;20037;-77
2023/04/26 03:02:21;;;;;;;1.70;1.20;;;;;;;16.17;58.39;97740.25;4975939;28;20058;-77
2023/04/26 03:04:47;;;;;;;1.85;1.20;;;;;;;16.16;58.35;97738.59;4993171;28;20394;-77
2023/04/26 03:07:12;;;;;;;2.75;1.30;;;;;;;16.13;58.53;97736.31;4959018;28;20173;-77
2023/04/26 03:09:38;;;;;;;2.22;1.50;;;;;;;16.12;58.42;97738.16;4975772;28;20022;-77
2023/04/26 03:12:05;;;;;;;1.98;1.42;;;;;;;16.09;58.44;97734.03;4985404;28;20482;-78
2023/04/26 03:14:32;;;;;;;2.25;1.48;;;;;;;16.12;58.58;97742.59;4994956;28;20488;-77
2023/04/26 03:16:57;;;;;;;4.00;1.60;;;;;;;16.13;58.55;97752.13;5011509;28;20030;-78
2023/04/26 03:19:23;;;;;;;2.28;1.45;;;;;;;16.10;58.77;97761.22;5011440;28;20022;-77
2023/04/26 03:21:48;;;;;;;2.15;1.42;;;;;;;16.09;58.80;97767.47;5011279;28;20494;-78
2023/04/26 03:24:14;;;;;;;1.88;1.40;;;;;;;16.08;58.61;97773.72;4994945;28;20030;-77
2023/04/26 03:26:39;;;;;;;1.95;1.30;;;;;;;16.08;58.50;97779.81;4994415;28;20057;-76
2023/04/26 03:29:06;;;;;;;1.77;1.38;;;;;;;16.09;58.81;97778.00;4994795;28;20022;-76
2023/04/26 03:31:31;;;;;;;2.33;1.40;;;;;;;16.08;58.77;97782.44;4994618;28;20026;-77
2023/04/26 03:33:57;;;;;;;2.10;1.30;;;;;;;16.08;58.76;97782.44;4972862;28;20088;-76
2023/04/26 03:36:22;;;;;;;1.75;1.50;;;;;;;16.05;58.75;97774.91;4975299;28;20035;-79
2023/04/26 03:38:48;;;;;;;2.42;1.30;;;;;;;16.06;58.92;97776.53;4975267;28;20116;-82
2023/04/26 03:41:13;;;;;;;2.92;1.25;;;;;;;16.10;60.32;97798.06;4958946;28;20160;-82
2023/04/26 03:43:39;;;;;;;2.15;1.60;;;;;;;16.12;59.92;97792.63;4974823;28;20501;-84
2023/04/26 03:46:04;;;;;;;6.45;1.40;;;;;;;16.31;66.77;97786.06;4979962;28;20038;-79
2023/04/26 03:48:30;;;;;;;1.92;1.10;;;;;;;16.28;64.20;97785.41;4978516;28;20579;-82
2023/04/26 03:50:55;;;;;;;2.78;1.38;;;;;;;16.32;63.64;97791.16;5014395;28;20038;-81
2023/04/26 03:53:21;;;;;;;3.72;1.40;;;;;;;16.31;64.00;97780.81;5016235;28;20037;-78
2023/04/26 03:55:47;;;;;;;3.95;1.27;;;;;;;16.31;63.85;97778.97;5015107;28;20060;-82
2023/04/26 03:58:12;;;;;;;8.43;1.20;;;;;;;16.35;63.79;97785.53;4998740;28;20021;-82
2023/04/26 04:00:38;;;;;;;2.15;1.25;;;;;;;16.34;63.73;97786.53;4998369;28;20429;-86
2023/04/26 04:03:05;;;;;;;5.90;1.52;;;;;;;16.34;63.88;97794.44;4999408;28;20037;-78
2023/04/26 04:05:31;;;;;;;5.70;1.40;;;;;;;16.36;64.00;97797.69;4998706;28;20042;-79
2023/04/26 04:07:56;;;;;;;8.57;1.30;;;;;;;16.35;63.83;97803.13;4981982;28;20046;-80
2023/04/26 04:10:22;;;;;;;2.38;1.52;;;;;;;16.35;63.97;97803.97;4999769;28;20113;-81
2023/04/26 04:12:48;;;;;;;11.13;1.67;;;;;;;16.38;65.75;97801.00;4986640;28;20072;-85
2023/04/26 04:15:15;;;;;;;11.85;1.77;;;;;;;16.43;65.56;97788.09;5003765;28;20541;-82
2023/04/26 04:17:41;;;;;;;5.53;1.70;;;;;;;16.50;65.09;97800.56;5017065;28;20058;-82
2023/04/26 04:20:07;;;;;;;9.95;1.80;;;;;;;16.56;66.31;97802.50;4982759;28;20430;-85
2023/04/26 04:22:33;;;;;;;6.53;1.90;;;;;;;16.56;65.51;97798.03;4998424;28;20026;-86
2023/04/26 04:24:58;;;;;;;10.88;1.67;;;;;;;16.53;65.25;97798.38;4998280;28;20038;-82
2023/04/26 04:27:27;;;;;;;6.78;1.50;;;;;;;16.57;64.96;97798.84;4997629;28;20510;-82
2023/04/26 04:29:53;;;;;;;;;;;;;;;16.58;64.48;97806.56;5016822;28;20492;-81
2023/04/26 04:32:21;;;;;;;7.88;1.40;;;;;;;16.56;66.30;97802.50;4981332;28;19909;-81
2023/04/26 04:34:47;;;;;;;6.82;1.50;;;;;;;16.68;65.61;97808.94;4997664;28;20029;-85
2023/04/26 04:37:13;;;;;;;9.13;1.50;;;;;;;16.70;64.98;97800.84;5015382;28;20037;-83
2023/04/26 04:39:39;;;;;;;9.35;1.70;;;;;;;16.71;64.47;97800.69;4997853;28;20595;-88
2023/04/26 04:42:04;;;;;;;11.30;1.58;;;;;;;16.71;64.18;97807.78;5015197;28;20042;-88
2023/04/26 04:44:30;;;;;;;4.90;1.50;;;;;;;16.67;63.94;97804.69;4982883;28;20022;-88
2023/04/26 04:46:55;;;;;;;5.45;1.33;;;;;;;16.64;63.64;97810.31;4998192;28;20108;-84
2023/04/26 04:49:22;;;;;;;3.50;1.40;;;;;;;16.56;63.63;97800.66;4997514;28;20133;-87
2023/04/26 04:51:48;;;;;;;5.05;1.58;;;;;;;16.61;63.32;97815.94;4997605;28;20069;-76
2023/04/26 04:54:14;;;;;;;10.90;1.45;;;;;;;16.55;63.14;97809.56;4997699;28;20076;-79
2023/04/26 04:56:40;;;;;;;5.38;1.67;;;;;;;16.57;63.21;97814.66;4980975;28;20382;-80
2023/04/26 04:59:05;;;;;;;5.05;1.60;;;;;;;16.53;63.09;97811.56;4997195;28;20033;-80
2023/04/26 05:01:32;;;;;;;3.85;1.23;;;;;;;16.52;62.85;97823.06;5013266;28;20030;-80
2023/04/26 05:03:58;;;;;;;3.55;1.42;;;;;;;16.49;62.81;97814.72;4982567;28;20073;-82
2023/04/26 05:06:24;;;;;;;2.35;1.48;;;;;;;16.47;62.68;97807.00;4983119;28;20496;-81
2023/04/26 05:08:49;;;;;;;2.75;1.27;;;;;;;16.41;62.66;97811.16;4998322;28;20057;-82
2023/04/26 05:11:15;;;;;;;3.30;1.50;;;;;;;16.40;62.69;97808.72;4981973;28;20551;-81
2023/04/26 05:13:40;;;;;;;3.30;1.33;;;;;;;16.41;62.50;97813.81;4981061;28;20046;-82
2023/04/26 05:16:06;;;;;;;5.13;1.40;;;;;;;16.41;62.31;97816.44;4982139;28;20032;-81
2023/04/26 05:18:32;;;;;;;3.25;1.38;;;;;;;16.41;62.24;97807.69;4999087;28;20112;-81
2023/04/26 05:20:57;;;;;;;2.05;1.30;;;;;;;16.38;62.23;97808.88;4998185;28;20026;-82
2023/04/26 05:23:23;;;;;;;2.58;1.40;;;;;;;16.37;61.92;97798.53;4998326;28;20038;-82
2023/04/26 05:25:48;;;;;;;2.78;1.33;;;;;;;16.37;61.87;97801.16;4998601;28;20397;-80
2023/04/26 05:28:14;;;;;;;6.07;1.40;;;;;;;16.36;61.72;97797.69;4997902;28;20034;-81
2023/04/26 05:30:39;;;;;;;4.32;1.40;;;;;;;16.41;61.62;97812.97;4981497;28;20394;-81
2023/04/26 05:33:06;;;;;;;2.10;1.40;;;;;;;16.42;61.50;97812.78;4997431;28;20038;-79
2023/04/26 05:35:32;;;;;;;2.83;1.35;;;;;;;16.40;61.43;97811.34;4997695;28;20045;-81
2023/04/26 05:37:57;;;;;;;4.00;1.33;;;;;;;16.46;61.33;97813.25;4980855;28;20029;-80
2023/04/26 05:40:23;;;;;;;5.55;1.50;;;;;;;16.50;61.06;97811.09;4998554;28;20092;-81
2023/04/26 05:42:49;;;;;;;3.17;1.75;;;;;;;16.56;60.77;97805.94;4997605;28;20065;-80
2023/04/26 05:45:15;;;;;;;5.20;1.55;;;;;;;16.61;60.59;97803.56;4981281;28;20092;-81
2023/04/26 05:47:40;;;;;;;3.17;1.27;;;;;;;16.66;60.45;97799.59;4981659;28;20038;-79
2023/04/26 05:50:07;;;;;;;2.45;1.50;;;;;;;16.69;60.17;97801.88;4997229;28;20026;-81
2023/04/26 05:52:32;;;;;;;2.20;1.33;;;;;;;16.71;60.38;97810.41;4997718;28;20512;-81
2023/04/26 05:54:58;;;;;;;3.97;1.48;;;;;;;16.72;59.77;97812.88;4996666;28;20033;-79
2023/04/26 05:57:24;;;;;;;2.45;1.48;;;;;;;16.77;60.13;97817.59;4996918;28;20056;-82
2023/04/26 05:59:49;;;;;;;1.85;1.20;;;;;;;16.76;59.81;97806.25;4998030;28;20029;-80
2023/04/26 06:02:15;;;;;;;3.17;1.40;;;;;;;16.83;59.74;97808.97;4997461;28;20124;-82
2023/04/26 06:04:40;;;;;;;2.22;1.67;;;;;;;16.90;59.52;97819.66;4981681;28;20045;-80
2023/04/26 06:07:06;;;;;;;2.78;1.52;;;;;;;16.95;59.40;97810.22;4980771;28;20072;-81
2023/04/26 06:09:33;;;;;;;2.60;1.20;;;;;;;16.96;59.25;97805.75;4981641;28;20048;-80
2023/04/26 06:11:58;;;;;;;3.40;1.42;;;;;;;17.05;58.87;97807.31;4982420;28;20435;-80
2023/04/26 06:14:25;;;;;;;2.15;1.50;;;;;;;17.13;58.92;97815.13;4981589;28;20038;-81
2023/04/26 06:16:51;;;;;;;3.50;1.50;;;;;;;17.20;58.64;97809.13;4998831;28;20490;-83
2023/04/26 06:19:16;;;;;;;4.38;1.38;;;;;;;17.29;58.16;97806.22;4999417;28;20092;-82
2023/04/26 06:21:42;;;;;;;2.10;1.55;;;;;;;17.38;57.98;97809.59;5016103;28;20121;-84
2023/04/26 06:24:09;;;;;;;3.42;1.60;;;;;;;17.49;57.83;97806.47;4985274;28;20088;-82
2023/04/26 06:26:34;;;;;;;2.97;1.52;;;;;;;17.61;57.70;97803.34;4984104;28;20033;-81
2023/04/26 06:29:00;;;;;;;2.30;1.77;;;;;;;17.73;57.43;97809.81;4998344;28;20033;-84
2023/04/26 06:31:25;;;;;;;2.95;1.30;;;;;;;17.87;57.00;97795.75;4997334;28;20037;-83
2023/04/26 06:33:51;;;;;;;2.28;1.60;;;;;;;18.12;56.45;97795.41;4998277;28;20025;-84
2023/04/26 06:36:16;;;;;;;3.97;1.48;;;;;;;18.45;55.41;97800.19;5004314;28;20034;-84
2023/04/26 06:38:42;;;;;;;3.55;1.60;;;;;;;18.94;54.60;97795.91;5044936;23;20054;-84
2023/04/26 06:41:08;;;;;;;2.00;1.50;;;;;;;19.10;54.25;97800.06;4947131;28;20562;-85
2023/04/26 06:43:34;;;;;;;1.90;1.50;;;;;;;19.37;53.75;97803.69;4937474;28;20501;-84
2023/04/26 06:45:59;;;;;;;2.20;1.50;;;;;;;19.79;53.14;97803.66;4958315;28;20070;-84
2023/04/26 06:48:26;;;;;;;2.40;1.88;;;;;;;20.73;52.17;97801.97;4934600;28;20042;-82
2023/04/26 06:50:52;;;;;;;2.40;1.70;;;;;;;21.96;48.89;97800.41;4942266;28;20070;-83
2023/04/26 06:53:17;;;;;;;2.40;1.42;;;;;;;23.18;46.10;97804.59;4957627;28;20034;-80
2023/04/26 06:55:43;;;;;;;2.67;1.58;;;;;;;23.65;45.10;97800.34;4940797;28;20451;-80
2023/04/26 06:58:09;;;;;;;1.83;1.40;;;;;;;24.73;42.86;97796.97;4955388;28;20399;-81
2023/04/26 07:00:34;;;;;;;2.55;1.52;;;;;;;25.64;40.67;97799.22;4935486;28;20034;-80
2023/04/26 07:03:00;;;;;;;1.88;1.33;;;;;;;25.57;40.23;97801.19;4972701;28;20446;-82
2023/04/26 07:05:25;;;;;;;2.38;1.42;;;;;;;25.78;39.80;97800.56;4942011;28;20031;-81
2023/04/26 07:07:51;;;;;;;2.10;1.38;;;;;;;26.52;38.00;97805.09;4950207;28;20062;-83
2023/04/26 07:10:16;;;;;;;3.83;1.45;;;;;;;26.71;37.51;97802.22;4975208;28;20042;-79
2023/04/26 07:12:42;;;;;;;2.15;1.40;;;;;;;26.77;36.75;97789.69;4959915;28;20434;-80
2023/04/26 07:15:08;;;;;;;1.95;1.30;;;;;;;27.02;36.01;97798.09;4959701;28;20104;-79
2023/04/26 07:17:34;;;;;;;2.65;1.42;;;;;;;27.55;34.87;97803.09;4943770;28;20045;-79
2023/04/26 07:20:00;;;;;;;2.22;1.70;;;;;;;27.91;34.20;97798.94;4992077;28;20026;-79
2023/04/26 07:22:25;;;;;;;1.80;1.33;;;;;;;28.73;33.00;97792.72;4959222;28;20188;-82
2023/04/26 07:24:51;;;;;;;1.65;1.10;;;;;;;29.36;32.17;97787.44;4959956;28;20035;-79
2023/04/26 07:27:16;;;;;;;2.05;1.13;;;;;;;29.44;32.16;97784.25;4944819;28;20125;-79
2023/04/26 07:29:42;;;;;;;2.55;1.25;;;;;;;29.81;31.38;97790.56;4944108;28;20097;-78
2023/04/26 07:32:07;;;;;;;1.50;1.02;;;;;;;29.95;31.38;97783.59;4943804;28;20143;-82
2023/04/26 07:34:33;;;;;;;2.70;0.98;;;;;;;30.51;30.35;97785.56;4959794;28;20034;-78
2023/04/26 07:36:59;;;;;;;1.88;1.10;;;;;;;31.01;29.69;97791.16;4942967;28;20475;-82
2023/04/26 07:39:24;;;;;;;2.58;1.20;;;;;;;31.34;29.18;97789.75;4976110;28;20502;-78
2023/04/26 07:41:50;;;;;;;2.03;1.13;;;;;;;31.49;28.97;97785.34;4975810;28;20062;-78
2023/04/26 07:44:15;;;;;;;1.77;1.15;;;;;;;31.97;28.28;97795.66;4943814;28;20037;-80
2023/04/26 07:46:41;;;;;;;2.08;1.33;;;;;;;32.35;27.95;97799.44;4959055;28;20093;-78
2023/04/26 07:49:06;;;;;;;1.30;1.05;;;;;;;32.71;27.45;97798.38;4976080;28;20020;-79
2023/04/26 07:51:34;;;;;;;3.40;1.13;;;;;;;33.06;27.20;97799.09;4975955;28;20030;-79
2023/04/26 07:54:00;;;;;;;2.40;1.20;;;;;;;33.16;27.05;97802.50;4974271;28;20039;-78
2023/04/26 07:56:26;;;;;;;3.67;1.23;;;;;;;33.10;26.60;97800.13;4959719;28;20049;-80
2023/04/26 07:58:51;;;;;;;3.38;1.20;;;;;;;32.96;26.58;97797.31;4959794;28;20474;-79
2023/04/26 08:01:17;;;;;;;2.60;1.23;;;;;;;32.68;26.21;97801.63;4976083;28;20026;-79
2023/04/26 08:03:43;;;;;;;3.75;1.27;;;;;;;32.27;26.62;97803.53;4942882;28;20120;-81
2023/04/26 08:06:08;;;;;;;2.13;1.20;;;;;;;31.95;27.36;97800.53;4942459;28;20081;-80
2023/04/26 08:08:39;;;;;;;3.85;1.40;;;;;;;31.72;27.43;97798.22;4942675;28;20027;-80
2023/04/26 08:11:08;;;;;;;2.85;1.30;;;;;;;31.51;27.74;97802.84;4944130;28;20042;-81
2023/04/26 08:13:34;;;;;;;3.33;1.13;;;;;;;31.20;27.79;97794.91;4958982;28;20030;-79
2023/04/26 08:16:00;;;;;;;2.35;1.13;;;;;;;30.97;28.09;97795.50;4959408;28;20030;-78
2023/04/26 08:18:25;;;;;;;2.63;1.45;;;;;;;30.66;28.32;97798.19;4960025;28;20394;-80
2023/04/26 08:20:54;;;;;;;2.08;1.30;;;;;;;30.34;28.40;97801.94;4959645;28;20093;-78
2023/04/26 08:23:20;;;;;;;3.33;1.25;;;;;;;29.98;29.04;97788.44;4943634;28;20489;-78
2023/04/26 08:25:45;;;;;;;1.73;1.40;;;;;;;29.76;29.01;97797.53;4942916;28;20034;-81
2023/04/26 08:28:13;;;;;;;2.50;1.50;;;;;;;29.50;29.74;97798.53;4958907;28;20516;-82
2023/04/26 08:30:39;;;;;;;2.58;1.45;;;;;;;29.32;29.68;97795.22;4959364;28;20138;-78
2023/04/26 08:33:05;;;;;;;3.65;1.55;;;;;;;29.10;29.78;97798.03;4992740;28;20143;-79
2023/04/26 08:35:31;;;;;;;2.33;1.50;;;;;;;29.03;29.84;97798.28;4959484;28;20061;-78
2023/04/26 08:37:56;;;;;;;3.17;1.58;;;;;;;28.88;29.96;97782.06;4961811;28;20490;-80
2023/04/26 08:40:26;;;;;;;3.63;1.63;;;;;;;28.79;29.98;97786.31;4947114;28;20035;-79
2023/04/26 08:42:52;;;;;;;3.03;1.92;;;;;;;28.66;30.20;97787.56;4947850;28;20038;-79
2023/04/26 08:45:21;;;;;;;4.30;2.33;;;;;;;28.67;30.04;97794.53;4946298;28;20026;-80
2023/04/26 08:47:47;;;;;;;5.55;2.88;;;;;;;28.79;29.54;97786.31;4980466;28;20545;-80
2023/04/26 08:50:14;;;;;;;5.43;2.95;;;;;;;29.25;29.42;97794.66;4980287;28;20026;-81
2023/04/26 08:52:40;;;;;;;5.90;2.60;;;;;;;29.19;29.61;97796.53;4978884;28;20030;-81
2023/04/26 08:55:06;;;;;;;5.18;2.47;;;;;;;29.74;29.01;97780.84;4946488;28;20505;-79
2023/04/26 08:57:32;;;;;;;7.90;2.35;;;;;;;29.92;28.02;97781.44;4962756;28;20101;-81
2023/04/26 08:59:58;;;;;;;3.92;2.05;;;;;;;29.75;27.99;97778.97;4963559;28;20105;-81
2023/04/26 09:02:23;;;;;;;3.90;2.00;;;;;;;29.35;29.04;97783.13;4962853;28;20034;-85
2023/04/26 09:04:50;;;;;;;4.53;2.15;;;;;;;28.99;29.36;97789.13;4962856;28;20061;-81
2023/04/26 09:07:20;;;;;;;4.65;2.35;;;;;;;28.78;29.12;97785.50;4947467;28;20030;-83
2023/04/26 09:09:49;;;;;;;7.95;3.58;;;;;;;28.66;29.44;97776.81;4962980;28;20038;-81
2023/04/26 09:12:16;;;;;;;11.40;3.70;;;;;;;28.69;29.17;97777.09;4962140;28;20030;-81
2023/04/26 09:14:42;;;;;;;9.82;4.10;;;;;;;29.02;28.69;97777.84;4963822;28;20046;-83
2023/04/26 09:17:27;;;;;;;8.52;3.85;;;;;;;28.74;29.27;97770.97;4978933;28;20042;-83
2023/04/26 09:19:52;;;;;;;10.70;4.43;;;;;;;28.54;29.41;97770.78;4978585;28;20030;-82
2023/04/26 09:22:32;;;;;;;8.98;4.13;;;;;;;28.32;29.60;97764.47;4962140;28;20040;-83
2023/04/26 09:24:57;;;;;;;9.20;4.22;;;;;;;28.26;29.84;97770.03;4979110;28;20069;-79
2023/04/26 09:27:36;;;;;;;11.20;4.57;;;;;;;28.45;29.50;97776.66;4978235;28;20058;-85
2023/04/26 09:30:19;;;;;;;10.63;4.28;;;;;;;28.46;29.83;97766.72;4978892;28;20026;-80
2023/04/26 09:32:54;;;;;;;7.95;3.88;;;;;;;28.44;29.63;97763.47;4946431;28;20652;-81
2023/04/26 09:35:29;;;;;;;8.15;3.35;;;;;;;28.34;29.56;97764.22;4977941;28;20037;-80
2023/04/26 09:37:59;;;;;;;6.80;3.53;;;;;;;28.68;29.25;97756.69;4977334;28;20089;-81
2023/04/26 09:40:26;;;;;;;4.80;2.72;;;;;;;28.68;28.80;97759.38;4963277;28;20030;-80
2023/04/26 09:42:58;;;;;;;5.90;2.92;;;;;;;28.38;29.75;97748.41;4945013;28;20046;-82
2023/04/26 09:45:25;;;;;;;7.10;2.83;;;;;;;28.19;30.08;97746.09;4961864;28;20100;-84
2023/04/26 09:47:51;;;;;;;4.30;2.50;;;;;;;28.17;30.03;97747.44;4945350;28;20129;-82
2023/04/26 09:50:27;;;;;;;4.03;2.30;;;;;;;27.98;30.10;97751.28;4980486;28;20131;-84
2023/04/26 09:52:52;;;;;;;3.75;2.10;;;;;;;27.86;30.13;97752.47;4947144;28;20089;-84
2023/04/26 09:55:30;;;;;;;3.88;2.10;;;;;;;27.78;29.91;97757.25;4961675;28;20031;-82
2023/04/26 09:57:59;;;;;;;3.75;2.05;;;;;;;27.59;30.29;97756.75;4945400;28;20038;-83
2023/04/26 10:00:26;;;;;;;4.50;2.05;;;;;;;27.43;30.68;97757.66;4961619;28;20026;-81
2023/04/26 10:02:53;;;;;;;4.40;1.85;;;;;;;27.30;30.77;97748.09;4945993;28;20474;-81
2023/04/26 10:05:18;;;;;;;2.92;1.77;;;;;;;27.21;31.21;97747.72;4961604;28;20496;-80
2023/04/26 10:07:44;;;;;;;3.55;1.63;;;;;;;27.08;31.22;97743.53;4979028;28;20109;-82
2023/04/26 10:10:10;;;;;;;3.40;1.90;;;;;;;26.95;31.89;97748.47;4964493;28;20030;-80
2023/04/26 10:12:36;;;;;;;3.13;1.65;;;;;;;26.86;31.58;97745.38;4962789;28;20034;-80
2023/04/26 10:15:02;;;;;;;2.83;1.60;;;;;;;26.74;31.53;97732.13;4977326;28;20049;-80
2023/04/26 10:17:28;;;;;;;3.25;1.70;;;;;;;26.71;31.92;97738.78;4944646;28;20052;-80
2023/04/26 12:26:00;;;;;;;5.55;3.33;;;;;;;20.59;46.23;97780.75;4971482;22;15090942;-83
2023/04/26 12:28:53;;;;;;;4.13;3.00;;;;;;;20.55;47.47;97787.47;5024982;28;20262;-86
2023/04/26 12:31:22;;;;;;;7.45;3.85;;;;;;;20.53;47.20;97780.75;4997271;28;20049;-82
2023/04/26 12:33:50;;;;;;;11.02;3.78;;;;;;;20.47;47.53;97786.88;5000366;28;20050;-85
2023/04/26 12:36:21;;;;;;;9.07;4.72;;;;;;;20.39;47.40;97788.69;4992865;28;20044;-85
2023/04/26 12:38:48;;;;;;;7.82;4.22;;;;;;;20.37;47.56;97795.22;4965174;28;20047;-83
2023/04/26 12:41:14;;;;;;;6.82;4.40;;;;;;;20.31;47.51;97788.91;4954502;28;20062;-80
2023/04/26 12:43:41;;;;;;;5.25;4.10;;;;;;;20.27;47.51;97797.44;4956593;28;20038;-80
2023/04/26 12:46:19;;;;;;;8.40;3.80;;;;;;;20.21;47.58;97801.75;4970735;28;20663;-80
2023/04/26 12:48:52;;;;;;;8.48;3.80;;;;;;;20.15;47.88;97803.34;4975005;28;20575;-83
2023/04/26 12:51:19;;;;;;;4.57;3.22;;;;;;;20.11;47.69;97818.00;4974017;28;20046;-80
2023/04/26 12:53:54;;;;;;;5.75;3.72;;;;;;;20.05;47.68;97811.69;4990732;28;20064;-87
2023/04/26 12:56:20;;;;;;;4.97;3.80;;;;;;;20.00;47.67;97821.25;4974030;28;20046;-80
2023/04/26 12:58:51;;;;;;;6.03;3.45;;;;;;;19.93;47.83;97826.53;4973849;28;20072;-80
2023/04/26 13:01:20;;;;;;;5.45;3.42;;;;;;;19.86;47.90;97812.44;4961464;28;20053;-81
2023/04/26 13:03:45;;;;;;;4.38;3.15;;;;;;;19.82;48.00;97819.97;5011130;28;20057;-83
2023/04/26 13:06:16;;;;;;;5.72;3.17;;;;;;;19.77;48.00;97816.31;4994193;28;20065;-82
2023/04/26 13:08:43;;;;;;;3.45;2.50;;;;;;;19.75;48.13;97819.13;5012083;28;20026;-81
2023/04/26 13:11:20;;;;;;;5.60;2.90;;;;;;;19.71;48.13;97817.88;5011571;28;20032;-82
2023/04/26 13:13:58;;;;;;;3.83;2.33;;;;;;;19.69;48.23;97831.31;5014147;28;20033;-82
2023/04/26 13:16:26;;;;;;;4.20;2.58;;;;;;;19.66;48.29;97837.00;5012222;28;20489;-81
2023/04/26 13:18:54;;;;;;;6.45;2.40;;;;;;;19.66;48.40;97837.00;5011409;28;20501;-80
2023/04/26 13:21:27;;;;;;;5.15;2.55;;;;;;;19.66;48.59;97838.84;5015435;28;20061;-85
2023/04/26 13:24:06;;;;;;;3.10;2.35;;;;;;;19.69;48.53;97835.78;4996076;28;20042;-82
2023/04/26 13:26:48;;;;;;;3.75;2.40;;;;;;;19.70;48.64;97843.53;4996198;28;20046;-82
2023/04/26 13:29:13;;;;;;;4.28;2.38;;;;;;;19.69;48.55;97839.25;5013504;28;20061;-81
2023/04/26 13:31:46;;;;;;;3.58;2.20;;;;;;;19.71;48.68;97850.44;4976153;28;20034;-81
2023/04/26 13:34:11;;;;;;;4.07;2.40;;;;;;;19.73;48.75;97846.78;4994647;28;20034;-80
2023/04/26 13:36:39;;;;;;;5.60;2.17;;;;;;;19.72;48.79;97846.00;4990724;28;20030;-83
2023/04/26 13:39:06;;;;;;;5.68;2.05;;;;;;;19.76;48.80;97849.03;5012174;28;20668;-79